createdAt,value
2024-03-22T00:00:57.467Z,9.86
2024-03-22T00:01:57.459Z,9.83
2024-03-22T00:02:57.441Z,9.88
2024-03-22T00:03:57.428Z,9.83
2024-03-22T00:04:57.431Z,9.78
2024-03-22T00:05:57.427Z,9.89
2024-03-22T00:06:57.389Z,9.78
2024-03-22T00:07:57.375Z,9.71
2024-03-22T00:08:57.360Z,9.68
2024-03-22T00:09:57.349Z,9.74
2024-03-22T00:10:57.346Z,9.74
2024-03-22T00:11:57.323Z,9.78
2024-03-22T00:12:57.310Z,9.77
2024-03-22T00:13:57.296Z,9.80
2024-03-22T00:14:57.294Z,9.80
2024-03-22T00:15:57.272Z,9.80
2024-03-22T00:16:57.269Z,9.75
2024-03-22T00:17:57.591Z,9.67
2024-03-22T00:18:57.225Z,9.71
2024-03-22T00:19:57.217Z,9.68
2024-03-22T00:20:57.200Z,9.62
2024-03-22T00:21:57.203Z,9.60
2024-03-22T00:22:57.474Z,9.63
2024-03-22T00:23:57.159Z,9.56
2024-03-22T00:24:57.146Z,9.52
2024-03-22T00:25:57.150Z,9.70
2024-03-22T00:26:57.118Z,9.53
2024-03-22T00:27:57.106Z,9.55
2024-03-22T00:28:57.094Z,9.50
2024-03-22T00:29:57.079Z,9.45
2024-03-22T00:30:57.067Z,9.53
2024-03-22T00:31:57.052Z,9.53
2024-03-22T00:32:57.052Z,9.48
2024-03-22T00:33:57.026Z,9.41
2024-03-22T00:34:57.015Z,9.40
2024-03-22T00:35:56.996Z,9.34
2024-03-22T00:36:56.984Z,9.40
2024-03-22T00:37:56.988Z,9.42
2024-03-22T00:38:56.958Z,9.26
2024-03-22T00:39:56.943Z,9.41
2024-03-22T00:40:56.929Z,9.41
2024-03-22T00:41:56.916Z,9.38
2024-03-22T00:42:56.902Z,9.26
2024-03-22T00:43:56.889Z,9.40
2024-03-22T00:44:56.875Z,9.20
2024-03-22T00:45:56.868Z,9.26
2024-03-22T00:46:56.872Z,9.27
2024-03-22T00:47:56.836Z,9.17
2024-03-22T00:48:56.823Z,9.13
2024-03-22T00:49:56.826Z,9.13
2024-03-22T00:50:56.794Z,9.16
2024-03-22T00:51:56.787Z,9.10
2024-03-22T00:52:57.018Z,9.12
2024-03-22T00:53:56.777Z,9.03
2024-03-22T00:54:56.746Z,8.98
2024-03-22T00:55:56.734Z,9.13
2024-03-22T00:56:56.722Z,9.13
2024-03-22T00:57:56.701Z,9.13
2024-03-22T00:58:56.687Z,9.12
2024-03-22T00:59:56.678Z,9.12
2024-03-22T01:00:56.659Z,9.01
2024-03-22T01:01:56.647Z,9.12
2024-03-22T01:02:56.631Z,9.13
2024-03-22T01:03:56.624Z,9.08
2024-03-22T01:04:56.609Z,9.01
2024-03-22T01:05:56.599Z,9.03
2024-03-22T01:06:56.580Z,9.03
2024-03-22T01:07:56.578Z,8.93
2024-03-22T01:08:56.562Z,8.85
2024-03-22T01:09:56.585Z,8.98
2024-03-22T01:10:56.540Z,8.85
2024-03-22T01:11:56.513Z,8.78
2024-03-22T01:12:56.495Z,8.82
2024-03-22T01:13:56.486Z,8.71
2024-03-22T01:14:56.880Z,8.68
2024-03-22T01:15:56.465Z,8.58
2024-03-22T01:16:56.448Z,8.55
2024-03-22T01:17:56.432Z,8.47
2024-03-22T01:18:56.420Z,8.49
2024-03-22T01:19:56.404Z,8.40
2024-03-22T01:20:56.389Z,8.42
2024-03-22T01:21:56.397Z,8.47
2024-03-22T01:22:56.366Z,8.42
2024-03-22T01:23:56.353Z,8.37
2024-03-22T01:24:56.740Z,8.42
2024-03-22T01:25:56.347Z,8.32
2024-03-22T01:26:56.310Z,8.50
2024-03-22T01:27:56.332Z,8.39
2024-03-22T01:28:57.854Z,8.43
2024-03-22T01:29:56.279Z,8.29
2024-03-22T01:30:56.257Z,8.25
2024-03-22T01:31:56.242Z,8.36
2024-03-22T01:32:56.230Z,8.29
2024-03-22T01:33:56.568Z,8.31
2024-03-22T01:34:56.210Z,8.22
2024-03-22T01:35:56.188Z,8.31
2024-03-22T01:36:56.186Z,8.24
2024-03-22T01:37:56.162Z,8.18
2024-03-22T01:38:56.151Z,8.27
2024-03-22T01:39:56.133Z,8.28
2024-03-22T01:40:56.121Z,8.14
2024-03-22T01:41:56.139Z,8.17
2024-03-22T01:42:56.098Z,8.12
2024-03-22T01:43:56.082Z,8.14
2024-03-22T01:44:56.080Z,8.06
2024-03-22T01:45:56.056Z,8.04
2024-03-22T01:46:56.047Z,8.02
2024-03-22T01:47:56.024Z,8.03
2024-03-22T01:48:56.017Z,8.10
2024-03-22T01:49:56.003Z,7.96
2024-03-22T01:50:55.987Z,8.06
2024-03-22T01:51:55.975Z,7.99
2024-03-22T01:52:55.965Z,7.96
2024-03-22T01:53:55.948Z,7.92
2024-03-22T01:54:55.934Z,8.00
2024-03-22T01:55:56.375Z,7.92
2024-03-22T01:56:55.911Z,7.86
2024-03-22T01:57:55.906Z,7.82
2024-03-22T01:58:55.879Z,7.74
2024-03-22T01:59:55.872Z,7.77
2024-03-22T02:00:55.854Z,7.85
2024-03-22T02:01:55.841Z,7.76
2024-03-22T02:02:55.825Z,7.70
2024-03-22T02:03:55.810Z,7.73
2024-03-22T02:04:55.800Z,7.70
2024-03-22T02:05:55.791Z,7.71
2024-03-22T02:06:55.770Z,7.66
2024-03-22T02:07:55.760Z,7.70
2024-03-22T02:08:55.746Z,7.48
2024-03-22T02:09:55.731Z,7.67
2024-03-22T02:10:55.717Z,7.62
2024-03-22T02:11:55.705Z,7.57
2024-03-22T02:12:55.691Z,7.50
2024-03-22T02:13:55.689Z,7.52
2024-03-22T02:14:55.664Z,7.48
2024-03-22T02:15:55.651Z,7.45
2024-03-22T02:16:55.646Z,7.34
2024-03-22T02:17:55.659Z,7.37
2024-03-22T02:18:55.611Z,7.45
2024-03-22T02:19:55.602Z,7.41
2024-03-22T02:20:55.586Z,7.34
2024-03-22T02:21:55.575Z,7.39
2024-03-22T02:22:55.558Z,7.33
2024-03-22T02:23:55.543Z,7.36
2024-03-22T02:24:55.531Z,7.44
2024-03-22T02:25:55.528Z,7.39
2024-03-22T02:26:55.505Z,7.39
2024-03-22T02:27:55.542Z,7.34
2024-03-22T02:28:55.487Z,7.34
2024-03-22T02:29:55.482Z,7.32
2024-03-22T02:30:55.454Z,7.32
2024-03-22T02:31:55.434Z,7.36
2024-03-22T02:32:55.423Z,7.30
2024-03-22T02:33:55.420Z,7.18
2024-03-22T02:35:00.662Z,7.18
2024-03-22T02:35:56.403Z,7.27
2024-03-22T02:36:55.377Z,7.26
2024-03-22T02:37:55.362Z,7.18
2024-03-22T02:38:55.496Z,7.23
2024-03-22T02:39:55.330Z,7.18
2024-03-22T02:40:55.321Z,7.24
2024-03-22T02:41:55.305Z,7.23
2024-03-22T02:42:55.290Z,7.16
2024-03-22T02:43:55.278Z,7.24
2024-03-22T02:44:55.263Z,7.16
2024-03-22T02:45:55.266Z,7.08
2024-03-22T02:46:55.239Z,7.12
2024-03-22T02:47:55.266Z,7.15
2024-03-22T02:48:55.215Z,7.24
2024-03-22T02:49:55.215Z,7.04
2024-03-22T02:50:55.179Z,7.12
2024-03-22T02:51:55.168Z,7.07
2024-03-22T02:52:55.158Z,7.05
2024-03-22T02:53:55.152Z,7.05
2024-03-22T02:54:55.131Z,6.99
2024-03-22T02:55:55.119Z,7.04
2024-03-22T02:56:55.101Z,6.97
2024-03-22T02:57:55.090Z,6.90
2024-03-22T02:58:55.384Z,6.94
2024-03-22T02:59:55.059Z,6.96
2024-03-22T03:00:55.048Z,6.89
2024-03-22T03:01:55.052Z,6.89
2024-03-22T03:02:55.031Z,6.90
2024-03-22T03:03:55.017Z,6.87
2024-03-22T03:04:54.996Z,6.94
2024-03-22T03:05:54.983Z,6.86
2024-03-22T03:06:54.978Z,6.86
2024-03-22T03:07:54.951Z,6.81
2024-03-22T03:08:54.938Z,6.89
2024-03-22T03:09:54.927Z,6.81
2024-03-22T03:10:54.921Z,6.79
2024-03-22T03:11:54.902Z,6.83
2024-03-22T03:12:54.895Z,6.82
2024-03-22T03:13:54.875Z,6.83
2024-03-22T03:14:54.866Z,6.71
2024-03-22T03:15:54.851Z,6.83
2024-03-22T03:16:54.837Z,6.73
2024-03-22T03:17:54.844Z,6.73
2024-03-22T03:18:54.810Z,6.79
2024-03-22T03:19:54.790Z,6.75
2024-03-22T03:20:54.780Z,6.83
2024-03-22T03:21:55.119Z,6.75
2024-03-22T03:22:54.754Z,6.81
2024-03-22T03:23:54.739Z,6.76
2024-03-22T03:24:54.727Z,6.78
2024-03-22T03:25:54.862Z,6.79
2024-03-22T03:26:54.703Z,6.78
2024-03-22T03:27:54.686Z,6.76
2024-03-22T03:28:54.676Z,6.82
2024-03-22T03:29:54.658Z,6.79
2024-03-22T03:30:54.655Z,6.75
2024-03-22T03:31:54.632Z,6.78
2024-03-22T03:32:54.625Z,6.71
2024-03-22T03:33:54.624Z,6.79
2024-03-22T03:34:54.593Z,6.78
2024-03-22T03:35:54.580Z,6.79
2024-03-22T03:36:54.966Z,6.86
2024-03-22T03:37:54.555Z,6.79
2024-03-22T03:38:54.541Z,6.83
2024-03-22T03:39:54.531Z,6.90
2024-03-22T03:40:54.512Z,6.81
2024-03-22T03:41:54.494Z,6.79
2024-03-22T03:42:54.491Z,6.73
2024-03-22T03:43:54.472Z,6.79
2024-03-22T03:44:54.460Z,6.72
2024-03-22T03:45:54.450Z,6.72
2024-03-22T03:46:54.435Z,6.73
2024-03-22T03:47:54.419Z,6.81
2024-03-22T03:48:54.408Z,6.76
2024-03-22T03:49:54.402Z,6.73
2024-03-22T03:50:54.382Z,6.79
2024-03-22T03:51:54.367Z,6.76
2024-03-22T03:52:54.355Z,6.76
2024-03-22T03:53:54.342Z,6.73
2024-03-22T03:54:54.329Z,6.72
2024-03-22T03:55:54.308Z,6.76
2024-03-22T03:56:54.312Z,6.79
2024-03-22T03:57:54.288Z,6.73
2024-03-22T03:58:54.288Z,6.76
2024-03-22T03:59:54.260Z,6.76
2024-03-22T04:00:54.247Z,6.72
2024-03-22T04:01:54.241Z,6.69
2024-03-22T04:02:54.229Z,6.64
2024-03-22T04:03:54.207Z,6.71
2024-03-22T04:04:56.365Z,6.68
2024-03-22T04:05:54.194Z,6.69
2024-03-22T04:06:54.168Z,6.71
2024-03-22T04:07:54.154Z,6.63
2024-03-22T04:08:54.149Z,6.69
2024-03-22T04:09:54.126Z,6.71
2024-03-22T04:10:54.116Z,6.72
2024-03-22T04:11:54.101Z,6.61
2024-03-22T04:12:54.099Z,6.64
2024-03-22T04:13:54.076Z,6.61
2024-03-22T04:14:54.082Z,6.61
2024-03-22T04:15:54.049Z,6.60
2024-03-22T04:16:54.037Z,6.57
2024-03-22T04:17:54.022Z,6.54
2024-03-22T04:18:54.214Z,6.57
2024-03-22T04:19:54.044Z,6.58
2024-03-22T04:20:53.984Z,6.61
2024-03-22T04:21:53.981Z,6.53
2024-03-22T04:22:53.959Z,6.51
2024-03-22T04:23:53.949Z,6.53
2024-03-22T04:24:53.930Z,6.54
2024-03-22T04:25:53.921Z,6.54
2024-03-22T04:26:53.914Z,6.45
2024-03-22T04:27:53.888Z,6.46
2024-03-22T04:28:53.877Z,6.50
2024-03-22T04:29:53.862Z,6.45
2024-03-22T04:30:53.848Z,6.50
2024-03-22T04:31:53.837Z,6.48
2024-03-22T04:32:54.122Z,6.50
2024-03-22T04:33:53.808Z,6.54
2024-03-22T04:34:53.808Z,6.58
2024-03-22T04:35:53.783Z,6.54
2024-03-22T04:36:53.773Z,6.45
2024-03-22T04:37:53.758Z,6.57
2024-03-22T04:38:53.742Z,6.53
2024-03-22T04:39:53.733Z,6.51
2024-03-22T04:40:53.717Z,6.53
2024-03-22T04:41:53.701Z,6.51
2024-03-22T04:42:53.691Z,6.53
2024-03-22T04:43:53.675Z,6.48
2024-03-22T04:44:53.664Z,6.48
2024-03-22T04:45:53.652Z,6.51
2024-03-22T04:46:53.634Z,6.55
2024-03-22T04:47:53.622Z,6.50
2024-03-22T04:48:53.610Z,6.57
2024-03-22T04:49:53.596Z,6.53
2024-03-22T04:50:53.599Z,6.45
2024-03-22T04:51:53.570Z,6.54
2024-03-22T04:52:53.560Z,6.48
2024-03-22T04:53:53.543Z,6.40
2024-03-22T04:54:53.533Z,6.43
2024-03-22T04:55:53.515Z,6.40
2024-03-22T04:56:53.505Z,6.40
2024-03-22T04:57:53.498Z,6.35
2024-03-22T04:58:53.477Z,6.27
2024-03-22T04:59:53.459Z,6.36
2024-03-22T05:00:53.448Z,6.27
2024-03-22T05:01:53.436Z,6.30
2024-03-22T05:02:53.422Z,6.32
2024-03-22T05:03:53.656Z,6.20
2024-03-22T05:04:53.397Z,6.30
2024-03-22T05:05:53.381Z,6.32
2024-03-22T05:06:53.407Z,6.21
2024-03-22T05:07:53.355Z,6.25
2024-03-22T05:08:53.342Z,6.24
2024-03-22T05:09:53.330Z,6.21
2024-03-22T05:10:53.369Z,6.24
2024-03-22T05:11:53.652Z,6.20
2024-03-22T05:12:53.289Z,6.14
2024-03-22T05:13:53.273Z,6.14
2024-03-22T05:14:53.260Z,6.14
2024-03-22T05:15:53.252Z,6.13
2024-03-22T05:16:53.233Z,6.19
2024-03-22T05:17:53.221Z,6.10
2024-03-22T05:18:53.208Z,6.16
2024-03-22T05:19:53.200Z,6.14
2024-03-22T05:20:53.188Z,6.16
2024-03-22T05:21:53.167Z,6.19
2024-03-22T05:22:53.164Z,6.10
2024-03-22T05:23:53.140Z,6.16
2024-03-22T05:24:53.131Z,6.14
2024-03-22T05:25:53.121Z,6.11
2024-03-22T05:26:53.125Z,6.13
2024-03-22T05:27:53.091Z,6.19
2024-03-22T05:28:53.077Z,6.16
2024-03-22T05:29:53.263Z,6.24
2024-03-22T05:30:53.048Z,6.20
2024-03-22T05:31:53.032Z,6.20
2024-03-22T05:32:53.026Z,6.13
2024-03-22T05:33:53.007Z,6.16
2024-03-22T05:34:52.994Z,6.16
2024-03-22T05:35:52.981Z,6.16
2024-03-22T05:36:52.975Z,6.16
2024-03-22T05:37:53.357Z,6.21
2024-03-22T05:38:52.962Z,6.21
2024-03-22T05:39:52.929Z,6.19
2024-03-22T05:40:52.914Z,6.27
2024-03-22T05:41:52.902Z,6.21
2024-03-22T05:42:52.889Z,6.20
2024-03-22T05:43:52.878Z,6.21
2024-03-22T05:44:52.866Z,6.28
2024-03-22T05:45:52.848Z,6.24
2024-03-22T05:46:52.837Z,6.27
2024-03-22T05:47:52.819Z,6.35
2024-03-22T05:48:53.211Z,6.38
2024-03-22T05:49:52.794Z,6.39
2024-03-22T05:50:52.784Z,6.43
2024-03-22T05:51:52.770Z,6.50
2024-03-22T05:52:52.752Z,6.53
2024-03-22T05:53:52.749Z,6.64
2024-03-22T05:54:52.747Z,6.76
2024-03-22T05:55:52.716Z,6.89
2024-03-22T05:56:52.716Z,6.87
2024-03-22T05:57:52.699Z,6.89
2024-03-22T05:58:52.682Z,6.99
2024-03-22T05:59:52.665Z,6.99
2024-03-22T06:00:52.796Z,6.99
2024-03-22T06:01:52.933Z,7.07
2024-03-22T06:02:52.617Z,7.16
2024-03-22T06:03:52.614Z,7.32
2024-03-22T06:04:52.743Z,7.34
2024-03-22T06:05:52.587Z,7.36
2024-03-22T06:06:52.565Z,7.44
2024-03-22T06:07:52.557Z,7.45
2024-03-22T06:08:52.547Z,7.74
2024-03-22T06:09:52.535Z,7.92
2024-03-22T06:10:52.532Z,8.27
2024-03-22T06:11:52.517Z,8.40
2024-03-22T06:12:52.493Z,8.54
2024-03-22T06:13:52.475Z,8.58
2024-03-22T06:14:52.463Z,8.58
2024-03-22T06:15:52.565Z,8.70
2024-03-22T06:16:52.434Z,8.75
2024-03-22T06:17:52.429Z,8.80
2024-03-22T06:18:52.407Z,8.76
2024-03-22T06:19:52.395Z,8.86
2024-03-22T06:20:52.380Z,8.78
2024-03-22T06:21:52.368Z,9.06
2024-03-22T06:22:52.354Z,9.27
2024-03-22T06:23:52.341Z,9.41
2024-03-22T06:24:52.326Z,9.68
2024-03-22T06:25:52.325Z,9.98
2024-03-22T06:26:52.368Z,10.26
2024-03-22T06:27:52.292Z,10.44
2024-03-22T06:28:52.274Z,10.57
2024-03-22T06:29:52.261Z,10.83
2024-03-22T06:30:52.254Z,11.03
2024-03-22T06:31:52.337Z,11.23
2024-03-22T06:32:52.220Z,11.45
2024-03-22T06:33:52.211Z,11.56
2024-03-22T06:34:52.193Z,11.64
2024-03-22T06:35:52.180Z,11.81
2024-03-22T06:36:52.177Z,11.94
2024-03-22T06:37:52.155Z,12.13
2024-03-22T06:38:52.147Z,12.37
2024-03-22T06:39:52.130Z,12.56
2024-03-22T06:40:52.112Z,12.77
2024-03-22T06:41:52.100Z,12.91
2024-03-22T06:42:52.105Z,13.03
2024-03-22T06:43:52.075Z,13.10
2024-03-22T06:44:52.059Z,13.31
2024-03-22T06:45:52.055Z,13.66
2024-03-22T06:46:52.031Z,13.91
2024-03-22T06:47:52.038Z,14.20
2024-03-22T06:48:52.005Z,14.27
2024-03-22T06:49:51.993Z,14.34
2024-03-22T06:50:51.982Z,14.06
2024-03-22T06:51:51.968Z,13.79
2024-03-22T06:52:51.951Z,13.36
2024-03-22T06:53:53.402Z,13.19
2024-03-22T06:54:51.919Z,13.13
2024-03-22T06:55:51.911Z,12.95
2024-03-22T06:56:51.904Z,12.88
2024-03-22T06:57:51.891Z,12.79
2024-03-22T06:58:51.886Z,12.62
2024-03-22T06:59:51.858Z,12.59
2024-03-22T07:00:51.842Z,12.58
2024-03-22T07:01:51.834Z,12.49
2024-03-22T07:02:51.824Z,12.40
2024-03-22T07:03:51.825Z,12.36
2024-03-22T07:04:51.786Z,12.46
2024-03-22T07:05:51.778Z,12.36
2024-03-22T07:06:51.773Z,12.55
2024-03-22T07:07:51.751Z,12.66
2024-03-22T07:08:51.747Z,12.71
2024-03-22T07:09:51.725Z,12.63
2024-03-22T07:10:51.709Z,12.63
2024-03-22T07:11:51.705Z,12.51
2024-03-22T07:12:51.682Z,12.58
2024-03-22T07:13:51.668Z,12.87
2024-03-22T07:14:51.725Z,13.07
2024-03-22T07:15:51.641Z,13.13
2024-03-22T07:16:51.728Z,13.03
2024-03-22T07:17:51.672Z,12.99
2024-03-22T07:18:51.904Z,13.01
2024-03-22T07:19:51.592Z,13.28
2024-03-22T07:20:51.593Z,13.44
2024-03-22T07:21:51.582Z,13.53
2024-03-22T07:22:51.571Z,13.57
2024-03-22T07:23:51.546Z,13.57
2024-03-22T07:24:51.522Z,13.69
2024-03-22T07:25:51.521Z,13.83
2024-03-22T07:26:51.523Z,13.86
2024-03-22T07:27:51.482Z,13.69
2024-03-22T07:28:51.475Z,13.66
2024-03-22T07:29:51.474Z,13.98
2024-03-22T07:30:51.521Z,14.53
2024-03-22T07:31:51.434Z,15.22
2024-03-22T07:32:51.471Z,15.59
2024-03-22T07:33:51.406Z,15.99
2024-03-22T07:34:51.399Z,16.41
2024-03-22T07:35:51.419Z,16.75
2024-03-22T07:36:51.367Z,17.07
2024-03-22T07:37:51.347Z,17.38
2024-03-22T07:38:51.354Z,17.73
2024-03-22T07:39:51.322Z,17.94
2024-03-22T07:40:51.324Z,18.21
2024-03-22T07:41:51.315Z,18.38
2024-03-22T07:42:51.282Z,18.56
2024-03-22T07:43:51.285Z,18.54
2024-03-22T07:44:51.253Z,18.62
2024-03-22T07:45:51.245Z,18.66
2024-03-22T07:46:51.305Z,18.71
2024-03-22T07:47:51.244Z,18.42
2024-03-22T07:48:51.200Z,18.53
2024-03-22T07:49:51.188Z,18.82
2024-03-22T07:50:51.178Z,18.78
2024-03-22T07:51:51.169Z,18.64
2024-03-22T07:52:51.146Z,18.68
2024-03-22T07:53:51.213Z,18.91
2024-03-22T07:54:51.149Z,18.99
2024-03-22T07:55:51.110Z,18.86
2024-03-22T07:56:51.108Z,18.76
2024-03-22T07:57:51.110Z,18.56
2024-03-22T07:58:51.150Z,18.21
2024-03-22T07:59:51.210Z,18.16
2024-03-22T08:00:51.046Z,17.95
2024-03-22T08:01:51.333Z,17.30
2024-03-22T08:02:51.054Z,16.75
2024-03-22T08:03:50.998Z,16.06
2024-03-22T08:04:50.987Z,15.71
2024-03-22T08:05:51.029Z,15.38
2024-03-22T08:06:50.960Z,15.16
2024-03-22T08:07:50.950Z,14.94
2024-03-22T08:08:50.953Z,14.91
2024-03-22T08:09:50.928Z,15.00
2024-03-22T08:10:50.920Z,14.94
2024-03-22T08:11:50.930Z,14.80
2024-03-22T08:12:50.882Z,14.97
2024-03-22T08:13:50.870Z,15.15
2024-03-22T08:14:50.876Z,15.46
2024-03-22T08:15:50.841Z,15.60
2024-03-22T08:16:50.908Z,15.59
2024-03-22T08:17:50.824Z,15.44
2024-03-22T08:18:50.818Z,15.23
2024-03-22T08:19:50.789Z,15.12
2024-03-22T08:20:50.805Z,15.01
2024-03-22T08:21:50.784Z,15.13
2024-03-22T08:22:50.756Z,15.71
2024-03-22T08:23:50.872Z,16.65
2024-03-22T08:24:50.732Z,17.60
2024-03-22T08:25:50.757Z,18.57
2024-03-22T08:26:50.744Z,19.06
2024-03-22T08:27:59.977Z,19.61
2024-03-22T08:28:51.758Z,20.05
2024-03-22T08:29:50.665Z,20.17
2024-03-22T08:30:52.096Z,20.37
2024-03-22T08:31:50.634Z,20.68
2024-03-22T08:32:50.621Z,21.05
2024-03-22T08:33:50.609Z,21.30
2024-03-22T08:34:50.658Z,21.70
2024-03-22T08:35:50.611Z,22.11
2024-03-22T08:36:50.580Z,22.51
2024-03-22T08:37:50.554Z,22.48
2024-03-22T08:38:50.722Z,22.46
2024-03-22T08:39:50.531Z,22.44
2024-03-22T08:40:50.537Z,22.46
2024-03-22T08:41:50.647Z,22.64
2024-03-22T08:42:50.492Z,22.88
2024-03-22T08:43:50.574Z,23.25
2024-03-22T08:44:50.480Z,23.50
2024-03-22T08:45:50.822Z,23.87
2024-03-22T08:46:50.478Z,24.23
2024-03-22T08:47:50.435Z,24.29
2024-03-22T08:48:50.408Z,24.19
2024-03-22T08:49:50.395Z,23.81
2024-03-22T08:50:50.416Z,23.94
2024-03-22T08:51:50.373Z,24.27
2024-03-22T08:52:50.373Z,24.48
2024-03-22T08:53:50.349Z,24.84
2024-03-22T08:54:50.334Z,24.86
2024-03-22T08:55:50.338Z,25.04
2024-03-22T08:56:50.373Z,25.20
2024-03-22T08:57:57.977Z,25.34
2024-03-22T08:58:51.310Z,25.34
2024-03-22T08:59:50.270Z,25.45
2024-03-22T09:00:50.255Z,25.60
2024-03-22T09:01:50.279Z,25.76
2024-03-22T09:02:50.264Z,25.44
2024-03-22T09:03:50.212Z,25.17
2024-03-22T09:04:50.294Z,25.24
2024-03-22T09:05:56.650Z,25.30
2024-03-22T09:06:51.215Z,25.64
2024-03-22T09:07:50.866Z,25.72
2024-03-22T09:08:50.148Z,26.01
2024-03-22T09:09:50.136Z,26.23
2024-03-22T09:10:50.472Z,26.49
2024-03-22T09:11:50.130Z,26.57
2024-03-22T09:12:50.095Z,26.27
2024-03-22T09:13:50.083Z,26.11
2024-03-22T09:14:50.079Z,25.71
2024-03-22T09:15:50.106Z,25.69
2024-03-22T09:16:50.047Z,26.00
2024-03-22T09:17:50.039Z,26.28
2024-03-22T09:18:50.022Z,26.49
2024-03-22T09:19:50.036Z,26.34
2024-03-22T09:20:49.997Z,26.50
2024-03-22T09:21:50.015Z,26.71
2024-03-22T09:22:50.042Z,26.83
2024-03-22T09:23:49.957Z,26.98
2024-03-22T09:24:49.957Z,27.09
2024-03-22T09:25:49.931Z,27.11
2024-03-22T09:26:49.917Z,26.91
2024-03-22T09:27:49.907Z,26.87
2024-03-22T09:28:49.891Z,26.98
2024-03-22T09:29:50.405Z,27.16
2024-03-22T09:30:57.425Z,27.15
2024-03-22T09:31:50.877Z,27.24
2024-03-22T09:32:49.846Z,27.03
2024-03-22T09:33:49.869Z,26.94
2024-03-22T09:34:49.811Z,26.71
2024-03-22T09:35:49.890Z,26.44
2024-03-22T09:36:49.784Z,26.59
2024-03-22T09:37:49.775Z,26.66
2024-03-22T09:38:49.817Z,26.69
2024-03-22T09:39:49.742Z,26.75
2024-03-22T09:40:49.730Z,26.61
2024-03-22T09:41:50.932Z,26.09
2024-03-22T09:42:49.721Z,25.90
2024-03-22T09:43:49.744Z,26.04
2024-03-22T09:44:49.740Z,26.35
2024-03-22T09:45:49.733Z,26.65
2024-03-22T09:46:49.665Z,26.86
2024-03-22T09:47:49.743Z,27.20
2024-03-22T09:48:49.705Z,26.94
2024-03-22T09:49:49.688Z,26.54
2024-03-22T09:50:49.973Z,26.42
2024-03-22T09:51:49.608Z,26.39
2024-03-22T09:52:49.584Z,26.21
2024-03-22T09:53:50.297Z,25.81
2024-03-22T09:54:49.661Z,25.63
2024-03-22T09:55:49.543Z,25.39
2024-03-22T09:56:49.541Z,25.16
2024-03-22T09:57:49.520Z,24.61
2024-03-22T09:58:49.510Z,24.29
2024-03-22T09:59:49.587Z,24.14
2024-03-22T10:00:49.480Z,23.99
2024-03-22T10:01:49.468Z,23.69
2024-03-22T10:02:49.525Z,23.54
2024-03-22T10:03:49.442Z,23.53
2024-03-22T10:04:49.428Z,23.12
2024-03-22T10:05:49.453Z,23.14
2024-03-22T10:06:49.404Z,23.12
2024-03-22T10:07:49.393Z,23.32
2024-03-22T10:08:49.420Z,23.42
2024-03-22T10:09:49.370Z,23.03
2024-03-22T10:10:49.391Z,22.46
2024-03-22T10:11:49.371Z,22.17
2024-03-22T10:12:49.329Z,22.21
2024-03-22T10:13:49.315Z,22.52
2024-03-22T10:14:49.311Z,22.66
2024-03-22T10:15:49.288Z,22.79
2024-03-22T10:16:49.278Z,22.52
2024-03-22T10:17:49.263Z,22.23
2024-03-22T10:18:49.248Z,22.11
2024-03-22T10:19:49.233Z,21.99
2024-03-22T10:20:49.225Z,21.46
2024-03-22T10:21:49.209Z,21.15
2024-03-22T10:22:49.205Z,21.05
2024-03-22T10:23:49.185Z,20.94
2024-03-22T10:24:49.170Z,20.82
2024-03-22T10:25:49.158Z,20.81
2024-03-22T10:26:49.215Z,20.88
2024-03-22T10:27:49.137Z,20.87
2024-03-22T10:28:49.139Z,20.88
2024-03-22T10:29:49.189Z,20.90
2024-03-22T10:30:49.097Z,20.91
2024-03-22T10:31:49.093Z,20.97
2024-03-22T10:32:49.105Z,20.94
2024-03-22T10:33:49.158Z,21.11
2024-03-22T10:34:49.039Z,21.31
2024-03-22T10:35:49.088Z,21.55
2024-03-22T10:36:49.009Z,21.77
2024-03-22T10:37:52.652Z,21.96
2024-03-22T10:38:48.993Z,22.04
2024-03-22T10:39:49.053Z,22.29
2024-03-22T10:40:49.246Z,22.42
2024-03-22T10:41:49.053Z,22.24
2024-03-22T10:42:49.020Z,21.96
2024-03-22T10:43:48.940Z,21.68
2024-03-22T10:44:49.361Z,21.42
2024-03-22T10:45:49.008Z,21.13
2024-03-22T10:46:48.910Z,21.06
2024-03-22T10:47:48.864Z,21.12
2024-03-22T10:48:48.874Z,21.13
2024-03-22T10:49:51.044Z,21.21
2024-03-22T10:50:48.994Z,20.96
2024-03-22T10:51:48.808Z,20.96
2024-03-22T10:52:48.807Z,21.13
2024-03-22T10:53:49.282Z,21.36
2024-03-22T10:54:48.822Z,21.46
2024-03-22T10:55:48.763Z,21.22
2024-03-22T10:56:48.804Z,21.12
2024-03-22T10:57:48.839Z,21.08
2024-03-22T10:58:48.831Z,21.15
2024-03-22T10:59:48.806Z,21.19
2024-03-22T11:00:48.701Z,21.28
2024-03-22T11:01:48.710Z,21.27
2024-03-22T11:02:48.690Z,21.33
2024-03-22T11:03:48.665Z,21.43
2024-03-22T11:04:48.654Z,21.48
2024-03-22T11:05:48.659Z,21.49
2024-03-22T11:06:48.716Z,21.51
2024-03-22T11:07:48.609Z,21.61
2024-03-22T11:08:48.593Z,21.82
2024-03-22T11:09:48.584Z,21.77
2024-03-22T11:10:48.585Z,21.67
2024-03-22T11:11:48.552Z,21.75
2024-03-22T11:12:48.537Z,21.75
2024-03-22T11:13:48.930Z,21.82
2024-03-22T11:14:49.435Z,21.83
2024-03-22T11:15:48.504Z,21.81
2024-03-22T11:16:48.486Z,21.91
2024-03-22T11:17:48.470Z,21.81
2024-03-22T11:18:48.461Z,21.64
2024-03-22T11:19:48.444Z,21.51
2024-03-22T11:20:48.446Z,21.46
2024-03-22T11:21:48.421Z,21.46
2024-03-22T11:22:48.407Z,21.56
2024-03-22T11:23:48.394Z,21.49
2024-03-22T11:24:48.633Z,21.59
2024-03-22T11:25:48.369Z,21.85
2024-03-22T11:26:48.357Z,22.09
2024-03-22T11:27:48.342Z,22.20
2024-03-22T11:28:48.331Z,22.49
2024-03-22T11:29:48.315Z,22.79
2024-03-22T11:30:48.326Z,23.12
2024-03-22T11:31:48.297Z,23.39
2024-03-22T11:32:48.278Z,23.41
2024-03-22T11:33:48.666Z,23.34
2024-03-22T11:34:48.253Z,23.50
2024-03-22T11:35:48.240Z,23.49
2024-03-22T11:36:48.226Z,23.53
2024-03-22T11:37:48.224Z,23.56
2024-03-22T11:38:48.229Z,23.50
2024-03-22T11:39:48.188Z,23.32
2024-03-22T11:40:48.176Z,23.25
2024-03-22T11:41:48.161Z,23.26
2024-03-22T11:42:48.157Z,23.26
2024-03-22T11:43:48.133Z,23.21
2024-03-22T11:44:48.123Z,22.96
2024-03-22T11:45:48.109Z,22.85
2024-03-22T11:46:48.127Z,22.85
2024-03-22T11:47:48.081Z,22.97
2024-03-22T11:48:48.069Z,23.06
2024-03-22T11:49:48.054Z,22.91
2024-03-22T11:50:48.051Z,22.86
2024-03-22T11:51:48.029Z,22.56
2024-03-22T11:52:48.020Z,22.61
2024-03-22T11:53:48.005Z,22.57
2024-03-22T11:54:47.996Z,22.57
2024-03-22T11:55:47.982Z,22.57
2024-03-22T11:56:47.969Z,22.59
2024-03-22T11:57:47.954Z,22.59
2024-03-22T11:58:47.942Z,22.60
2024-03-22T12:00:02.013Z,22.44
2024-03-22T12:01:12.055Z,22.36
2024-03-22T12:01:49.009Z,22.35
2024-03-22T12:02:47.910Z,22.29
2024-03-22T12:03:47.876Z,22.36
2024-03-22T12:04:47.862Z,22.29
2024-03-22T12:05:47.850Z,22.27
2024-03-22T12:06:47.843Z,22.29
2024-03-22T12:07:47.825Z,22.31
2024-03-22T12:08:47.910Z,22.31
2024-03-22T12:09:47.795Z,22.38
2024-03-22T12:10:47.787Z,22.54
2024-03-22T12:11:47.776Z,22.51
2024-03-22T12:12:47.757Z,22.42
2024-03-22T12:13:47.751Z,22.48
2024-03-22T12:14:47.735Z,22.42
2024-03-22T12:15:47.717Z,22.31
2024-03-22T12:16:47.702Z,22.44
2024-03-22T12:17:47.709Z,22.57
2024-03-22T12:18:47.700Z,22.76
2024-03-22T12:19:47.666Z,22.79
2024-03-22T12:20:48.000Z,22.88
2024-03-22T12:21:47.645Z,22.79
2024-03-22T12:22:47.642Z,22.59
2024-03-22T12:23:47.616Z,22.56
2024-03-22T12:24:47.596Z,22.74
2024-03-22T12:25:47.582Z,22.96
2024-03-22T12:26:47.573Z,23.11
2024-03-22T12:27:47.564Z,23.25
2024-03-22T12:28:47.548Z,23.11
2024-03-22T12:29:47.531Z,23.03
2024-03-22T12:30:47.524Z,22.99
2024-03-22T12:31:47.502Z,22.96
2024-03-22T12:32:47.490Z,22.96
2024-03-22T12:33:47.481Z,22.91
2024-03-22T12:34:47.480Z,22.91
2024-03-22T12:35:47.461Z,22.79
2024-03-22T12:36:47.438Z,22.61
2024-03-22T12:37:47.422Z,22.45
2024-03-22T12:38:47.413Z,22.49
2024-03-22T12:39:47.405Z,22.49
2024-03-22T12:40:47.384Z,22.46
2024-03-22T12:41:47.369Z,22.44
2024-03-22T12:42:47.363Z,22.35
2024-03-22T12:43:57.789Z,22.24
2024-03-22T12:44:48.357Z,22.08
2024-03-22T12:45:47.321Z,21.85
2024-03-22T12:46:47.305Z,21.70
2024-03-22T12:47:47.293Z,21.71
2024-03-22T12:48:47.282Z,21.81
2024-03-22T12:49:47.264Z,21.89
2024-03-22T12:50:47.270Z,21.86
2024-03-22T12:51:47.237Z,21.77
2024-03-22T12:52:47.223Z,21.82
2024-03-22T12:53:47.212Z,21.98
2024-03-22T12:54:47.203Z,22.05
2024-03-22T12:55:47.192Z,21.91
2024-03-22T12:56:47.179Z,21.77
2024-03-22T12:57:47.158Z,21.73
2024-03-22T12:58:47.146Z,21.81
2024-03-22T12:59:47.136Z,21.71
2024-03-22T13:00:47.166Z,21.63
2024-03-22T13:01:47.107Z,21.67
2024-03-22T13:02:47.252Z,21.53
2024-03-22T13:03:47.082Z,21.40
2024-03-22T13:04:47.076Z,21.38
2024-03-22T13:05:47.056Z,21.31